ΕΜΥ, Εθνική Μετεωρολογική Υπηρεσία - Δελτία Καιρού, Προγνώσεις

ΑΕΡΟΝΑΥΤΙΛΙΑ

GREEK AIRPORTS CODES

LGSY 160450Z 35011KT CAVOK 25/18 Q1011 RMK FEW100 FEW200=

EUROPEAN AIRPORTS CODES

LFPO 160400Z 23008KT 9999 BKN043 BKN088 14/11 Q1020 NOSIG=